sensor_id;sensor_type;location;lat;lon;timestamp;P1;durP1;ratioP1;P2;durP2;ratioP2
59766;SDS011;46248;58.364;25.582;2023-10-09T00:00:20;4.50;;;0.30;;
59766;SDS011;46248;58.364;25.582;2023-10-09T00:03:56;0.40;;;0.40;;
59766;SDS011;46248;58.364;25.582;2023-10-09T00:07:21;0.47;;;0.40;;
59766;SDS011;46248;58.364;25.582;2023-10-09T00:10:45;0.30;;;0.30;;
59766;SDS011;46248;58.364;25.582;2023-10-09T00:14:11;0.60;;;0.35;;
59766;SDS011;46248;58.364;25.582;2023-10-09T00:17:35;0.47;;;0.30;;
59766;SDS011;46248;58.364;25.582;2023-10-09T00:20:58;1.05;;;0.35;;
59766;SDS011;46248;58.364;25.582;2023-10-09T00:24:34;0.38;;;0.38;;
59766;SDS011;46248;58.364;25.582;2023-10-09T00:27:56;1.58;;;0.32;;
59766;SDS011;46248;58.364;25.582;2023-10-09T00:35:14;1.55;;;0.30;;
59766;SDS011;46248;58.364;25.582;2023-10-09T00:38:59;1.30;;;0.40;;
59766;SDS011;46248;58.364;25.582;2023-10-09T00:57:35;0.20;;;0.20;;
59766;SDS011;46248;58.364;25.582;2023-10-09T01:02:13;1.02;;;0.50;;
59766;SDS011;46248;58.364;25.582;2023-10-09T01:05:39;0.40;;;0.40;;
59766;SDS011;46248;58.364;25.582;2023-10-09T01:09:23;0.65;;;0.40;;
59766;SDS011;46248;58.364;25.582;2023-10-09T01:27:12;1.17;;;0.50;;
59766;SDS011;46248;58.364;25.582;2023-10-09T01:34:51;0.20;;;0.20;;
59766;SDS011;46248;58.364;25.582;2023-10-09T01:38:35;1.30;;;0.60;;
59766;SDS011;46248;58.364;25.582;2023-10-09T01:42:01;1.65;;;0.30;;
59766;SDS011;46248;58.364;25.582;2023-10-09T01:49:41;0.95;;;0.40;;
59766;SDS011;46248;58.364;25.582;2023-10-09T01:53:03;0.60;;;0.30;;
59766;SDS011;46248;58.364;25.582;2023-10-09T01:56:28;0.30;;;0.25;;
59766;SDS011;46248;58.364;25.582;2023-10-09T01:59:50;0.88;;;0.40;;
59766;SDS011;46248;58.364;25.582;2023-10-09T02:03:15;1.52;;;0.52;;
59766;SDS011;46248;58.364;25.582;2023-10-09T02:11:30;4.80;;;1.77;;
59766;SDS011;46248;58.364;25.582;2023-10-09T02:15:01;2.97;;;1.35;;
59766;SDS011;46248;58.364;25.582;2023-10-09T02:18:35;2.65;;;1.60;;
59766;SDS011;46248;58.364;25.582;2023-10-09T02:22:13;1.65;;;0.40;;
59766;SDS011;46248;58.364;25.582;2023-10-09T02:26:22;4.00;;;1.23;;
59766;SDS011;46248;58.364;25.582;2023-10-09T02:30:34;2.13;;;0.77;;
59766;SDS011;46248;58.364;25.582;2023-10-09T02:33:56;0.30;;;0.20;;
59766;SDS011;46248;58.364;25.582;2023-10-09T02:37:20;0.85;;;0.40;;
59766;SDS011;46248;58.364;25.582;2023-10-09T02:40:45;0.75;;;0.40;;
59766;SDS011;46248;58.364;25.582;2023-10-09T02:44:20;1.60;;;1.15;;
59766;SDS011;46248;58.364;25.582;2023-10-09T02:57:31;1.75;;;0.90;;
59766;SDS011;46248;58.364;25.582;2023-10-09T03:09:49;38.35;;;17.98;;
59766;SDS011;46248;58.364;25.582;2023-10-09T03:13:11;14.75;;;8.23;;
59766;SDS011;46248;58.364;25.582;2023-10-09T03:36:55;3.10;;;1.23;;
59766;SDS011;46248;58.364;25.582;2023-10-09T03:40:25;2.50;;;1.35;;
59766;SDS011;46248;58.364;25.582;2023-10-09T03:43:48;16.15;;;8.68;;
59766;SDS011;46248;58.364;25.582;2023-10-09T03:47:10;6.65;;;5.10;;
59766;SDS011;46248;58.364;25.582;2023-10-09T03:50:39;3.60;;;2.88;;
59766;SDS011;46248;58.364;25.582;2023-10-09T03:55:03;1.35;;;1.23;;
59766;SDS011;46248;58.364;25.582;2023-10-09T04:09:20;1.48;;;1.35;;
59766;SDS011;46248;58.364;25.582;2023-10-09T04:12:59;1.20;;;0.80;;
59766;SDS011;46248;58.364;25.582;2023-10-09T04:16:23;2.78;;;1.15;;
59766;SDS011;46248;58.364;25.582;2023-10-09T04:29:36;2.88;;;1.63;;
59766;SDS011;46248;58.364;25.582;2023-10-09T04:41:46;8.65;;;4.47;;
59766;SDS011;46248;58.364;25.582;2023-10-09T04:45:37;5.03;;;2.50;;
59766;SDS011;46248;58.364;25.582;2023-10-09T04:49:30;1.65;;;1.55;;
59766;SDS011;46248;58.364;25.582;2023-10-09T04:53:39;3.72;;;1.48;;
59766;SDS011;46248;58.364;25.582;2023-10-09T04:57:11;2.80;;;1.45;;
59766;SDS011;46248;58.364;25.582;2023-10-09T05:01:23;1.45;;;1.25;;
59766;SDS011;46248;58.364;25.582;2023-10-09T05:04:57;1.38;;;1.05;;
59766;SDS011;46248;58.364;25.582;2023-10-09T05:08:46;2.92;;;1.65;;
59766;SDS011;46248;58.364;25.582;2023-10-09T05:12:08;2.35;;;1.85;;
59766;SDS011;46248;58.364;25.582;2023-10-09T05:16:03;1.65;;;1.55;;
59766;SDS011;46248;58.364;25.582;2023-10-09T05:30:26;1.33;;;1.13;;
59766;SDS011;46248;58.364;25.582;2023-10-09T05:38:18;2.10;;;1.40;;
59766;SDS011;46248;58.364;25.582;2023-10-09T05:41:48;2.58;;;1.75;;
59766;SDS011;46248;58.364;25.582;2023-10-09T05:45:14;2.97;;;1.65;;
59766;SDS011;46248;58.364;25.582;2023-10-09T05:49:07;2.40;;;1.50;;
59766;SDS011;46248;58.364;25.582;2023-10-09T05:52:40;1.00;;;0.95;;
59766;SDS011;46248;58.364;25.582;2023-10-09T05:56:25;1.63;;;0.95;;
59766;SDS011;46248;58.364;25.582;2023-10-09T06:00:05;0.90;;;0.90;;
59766;SDS011;46248;58.364;25.582;2023-10-09T06:03:45;1.67;;;0.80;;
59766;SDS011;46248;58.364;25.582;2023-10-09T06:07:15;0.75;;;0.75;;
59766;SDS011;46248;58.364;25.582;2023-10-09T06:14:26;2.05;;;1.50;;
59766;SDS011;46248;58.364;25.582;2023-10-09T06:18:09;1.85;;;1.52;;
59766;SDS011;46248;58.364;25.582;2023-10-09T06:21:45;9.30;;;2.60;;
59766;SDS011;46248;58.364;25.582;2023-10-09T06:25:22;9.07;;;3.38;;
59766;SDS011;46248;58.364;25.582;2023-10-09T06:28:53;3.33;;;1.52;;
59766;SDS011;46248;58.364;25.582;2023-10-09T06:32:31;2.35;;;1.23;;
59766;SDS011;46248;58.364;25.582;2023-10-09T06:35:57;1.58;;;1.30;;
59766;SDS011;46248;58.364;25.582;2023-10-09T06:39:28;1.40;;;0.75;;
59766;SDS011;46248;58.364;25.582;2023-10-09T06:43:09;0.65;;;0.65;;
59766;SDS011;46248;58.364;25.582;2023-10-09T06:50:05;0.77;;;0.57;;
59766;SDS011;46248;58.364;25.582;2023-10-09T06:53:44;0.60;;;0.57;;
59766;SDS011;46248;58.364;25.582;2023-10-09T06:57:27;1.00;;;0.85;;
59766;SDS011;46248;58.364;25.582;2023-10-09T07:01:04;0.85;;;0.63;;
59766;SDS011;46248;58.364;25.582;2023-10-09T07:04:49;3.13;;;0.98;;
59766;SDS011;46248;58.364;25.582;2023-10-09T07:08:14;2.05;;;0.85;;
59766;SDS011;46248;58.364;25.582;2023-10-09T07:11:52;1.70;;;0.85;;
59766;SDS011;46248;58.364;25.582;2023-10-09T07:15:24;2.85;;;1.55;;
59766;SDS011;46248;58.364;25.582;2023-10-09T07:19:05;6.03;;;2.15;;
59766;SDS011;46248;58.364;25.582;2023-10-09T07:22:48;2.78;;;1.08;;
59766;SDS011;46248;58.364;25.582;2023-10-09T07:26:16;2.00;;;1.30;;
59766;SDS011;46248;58.364;25.582;2023-10-09T07:29:43;1.05;;;0.82;;
59766;SDS011;46248;58.364;25.582;2023-10-09T07:33:08;1.60;;;0.32;;
59766;SDS011;46248;58.364;25.582;2023-10-09T07:40:08;2.63;;;1.52;;
59766;SDS011;46248;58.364;25.582;2023-10-09T07:43:36;5.00;;;0.93;;
59766;SDS011;46248;58.364;25.582;2023-10-09T07:47:00;3.63;;;1.10;;
59766;SDS011;46248;58.364;25.582;2023-10-09T07:50:38;1.67;;;1.10;;
59766;SDS011;46248;58.364;25.582;2023-10-09T07:54:10;0.95;;;0.70;;
59766;SDS011;46248;58.364;25.582;2023-10-09T07:57:35;2.35;;;0.68;;
59766;SDS011;46248;58.364;25.582;2023-10-09T08:00:59;1.35;;;0.43;;
59766;SDS011;46248;58.364;25.582;2023-10-09T08:04:28;1.45;;;0.52;;
59766;SDS011;46248;58.364;25.582;2023-10-09T08:08:00;1.58;;;0.50;;
59766;SDS011;46248;58.364;25.582;2023-10-09T08:11:57;5.43;;;1.83;;
59766;SDS011;46248;58.364;25.582;2023-10-09T08:15:37;1.13;;;0.82;;
59766;SDS011;46248;58.364;25.582;2023-10-09T08:19:12;1.08;;;0.60;;
59766;SDS011;46248;58.364;25.582;2023-10-09T08:22:51;6.53;;;2.60;;
59766;SDS011;46248;58.364;25.582;2023-10-09T08:26:16;4.63;;;1.13;;
59766;SDS011;46248;58.364;25.582;2023-10-09T08:29:51;1.15;;;0.75;;
59766;SDS011;46248;58.364;25.582;2023-10-09T08:33:32;2.53;;;0.75;;
59766;SDS011;46248;58.364;25.582;2023-10-09T08:37:04;2.35;;;0.77;;
59766;SDS011;46248;58.364;25.582;2023-10-09T08:40:30;2.17;;;0.88;;
59766;SDS011;46248;58.364;25.582;2023-10-09T08:43:53;0.88;;;0.55;;
59766;SDS011;46248;58.364;25.582;2023-10-09T08:47:17;0.57;;;0.50;;
59766;SDS011;46248;58.364;25.582;2023-10-09T08:50:40;1.48;;;0.50;;
59766;SDS011;46248;58.364;25.582;2023-10-09T08:54:02;0.30;;;0.30;;
59766;SDS011;46248;58.364;25.582;2023-10-09T08:57:25;1.15;;;0.40;;
59766;SDS011;46248;58.364;25.582;2023-10-09T09:00:47;3.20;;;0.50;;
59766;SDS011;46248;58.364;25.582;2023-10-09T09:04:10;2.92;;;0.43;;
59766;SDS011;46248;58.364;25.582;2023-10-09T09:07:33;0.40;;;0.30;;
59766;SDS011;46248;58.364;25.582;2023-10-09T09:11:03;0.95;;;0.30;;
59766;SDS011;46248;58.364;25.582;2023-10-09T09:14:36;1.75;;;0.40;;
59766;SDS011;46248;58.364;25.582;2023-10-09T09:18:04;0.70;;;0.40;;
59766;SDS011;46248;58.364;25.582;2023-10-09T09:21:31;0.63;;;0.20;;
59766;SDS011;46248;58.364;25.582;2023-10-09T09:25:00;0.73;;;0.50;;
59766;SDS011;46248;58.364;25.582;2023-10-09T09:28:23;0.98;;;0.80;;
59766;SDS011;46248;58.364;25.582;2023-10-09T09:31:53;3.00;;;1.73;;
59766;SDS011;46248;58.364;25.582;2023-10-09T09:35:20;5.63;;;1.70;;
59766;SDS011;46248;58.364;25.582;2023-10-09T09:38:48;4.63;;;1.75;;
59766;SDS011;46248;58.364;25.582;2023-10-09T09:42:12;1.77;;;0.80;;
59766;SDS011;46248;58.364;25.582;2023-10-09T09:45:35;1.35;;;0.57;;
59766;SDS011;46248;58.364;25.582;2023-10-09T09:48:57;2.30;;;1.20;;
59766;SDS011;46248;58.364;25.582;2023-10-09T09:52:22;6.22;;;2.13;;
59766;SDS011;46248;58.364;25.582;2023-10-09T09:55:51;4.63;;;1.60;;
59766;SDS011;46248;58.364;25.582;2023-10-09T09:59:18;4.88;;;2.03;;
59766;SDS011;46248;58.364;25.582;2023-10-09T10:02:44;2.58;;;2.38;;
59766;SDS011;46248;58.364;25.582;2023-10-09T10:06:08;1.90;;;0.98;;
59766;SDS011;46248;58.364;25.582;2023-10-09T10:09:35;3.10;;;2.70;;
59766;SDS011;46248;58.364;25.582;2023-10-09T10:13:04;6.72;;;2.30;;
59766;SDS011;46248;58.364;25.582;2023-10-09T10:16:26;2.38;;;1.33;;
59766;SDS011;46248;58.364;25.582;2023-10-09T10:19:58;3.93;;;1.73;;
59766;SDS011;46248;58.364;25.582;2023-10-09T10:23:21;2.15;;;0.80;;
59766;SDS011;46248;58.364;25.582;2023-10-09T10:26:45;1.60;;;0.60;;
59766;SDS011;46248;58.364;25.582;2023-10-09T10:34:06;2.63;;;1.13;;
59766;SDS011;46248;58.364;25.582;2023-10-09T10:37:35;0.90;;;0.60;;
59766;SDS011;46248;58.364;25.582;2023-10-09T10:41:11;2.65;;;0.50;;
59766;SDS011;46248;58.364;25.582;2023-10-09T10:44:37;1.83;;;0.40;;
59766;SDS011;46248;58.364;25.582;2023-10-09T10:48:04;1.20;;;0.40;;
59766;SDS011;46248;58.364;25.582;2023-10-09T10:51:34;1.83;;;1.65;;
59766;SDS011;46248;58.364;25.582;2023-10-09T10:55:06;2.17;;;0.90;;
59766;SDS011;46248;58.364;25.582;2023-10-09T10:58:38;2.40;;;1.70;;
59766;SDS011;46248;58.364;25.582;2023-10-09T11:02:09;4.80;;;2.60;;
59766;SDS011;46248;58.364;25.582;2023-10-09T11:05:44;1.40;;;1.10;;
59766;SDS011;46248;58.364;25.582;2023-10-09T11:09:12;1.20;;;1.10;;
59766;SDS011;46248;58.364;25.582;2023-10-09T11:12:42;2.95;;;1.10;;
59766;SDS011;46248;58.364;25.582;2023-10-09T11:16:25;2.63;;;1.58;;
59766;SDS011;46248;58.364;25.582;2023-10-09T11:20:02;3.17;;;0.60;;
59766;SDS011;46248;58.364;25.582;2023-10-09T11:23:44;1.30;;;1.10;;
59766;SDS011;46248;58.364;25.582;2023-10-09T11:27:18;0.75;;;0.70;;
59766;SDS011;46248;58.364;25.582;2023-10-09T11:30:44;1.92;;;1.00;;
59766;SDS011;46248;58.364;25.582;2023-10-09T11:34:17;1.48;;;0.82;;
59766;SDS011;46248;58.364;25.582;2023-10-09T11:37:55;1.70;;;1.10;;
59766;SDS011;46248;58.364;25.582;2023-10-09T11:41:19;0.80;;;0.45;;
59766;SDS011;46248;58.364;25.582;2023-10-09T11:44:43;4.72;;;2.35;;
59766;SDS011;46248;58.364;25.582;2023-10-09T11:48:16;2.15;;;1.15;;
59766;SDS011;46248;58.364;25.582;2023-10-09T11:51:46;0.95;;;0.80;;
59766;SDS011;46248;58.364;25.582;2023-10-09T11:55:27;0.88;;;0.82;;
59766;SDS011;46248;58.364;25.582;2023-10-09T11:58:54;1.20;;;1.02;;
59766;SDS011;46248;58.364;25.582;2023-10-09T12:02:19;1.80;;;1.17;;
59766;SDS011;46248;58.364;25.582;2023-10-09T12:05:42;1.50;;;0.90;;
59766;SDS011;46248;58.364;25.582;2023-10-09T12:09:04;0.85;;;0.60;;
59766;SDS011;46248;58.364;25.582;2023-10-09T12:12:26;2.30;;;1.33;;
59766;SDS011;46248;58.364;25.582;2023-10-09T12:15:49;2.40;;;1.92;;
59766;SDS011;46248;58.364;25.582;2023-10-09T12:19:13;2.92;;;2.42;;
59766;SDS011;46248;58.364;25.582;2023-10-09T12:22:35;2.80;;;1.48;;
59766;SDS011;46248;58.364;25.582;2023-10-09T12:26:01;2.17;;;1.15;;
59766;SDS011;46248;58.364;25.582;2023-10-09T12:29:24;1.58;;;1.10;;
59766;SDS011;46248;58.364;25.582;2023-10-09T12:32:51;1.63;;;1.10;;
59766;SDS011;46248;58.364;25.582;2023-10-09T12:36:13;3.03;;;1.52;;
59766;SDS011;46248;58.364;25.582;2023-10-09T12:39:40;6.32;;;3.38;;
59766;SDS011;46248;58.364;25.582;2023-10-09T12:43:03;6.28;;;3.63;;
59766;SDS011;46248;58.364;25.582;2023-10-09T12:46:25;10.80;;;4.10;;
59766;SDS011;46248;58.364;25.582;2023-10-09T12:49:49;16.50;;;6.10;;
59766;SDS011;46248;58.364;25.582;2023-10-09T12:53:14;12.95;;;5.00;;
59766;SDS011;46248;58.364;25.582;2023-10-09T12:56:38;7.47;;;2.60;;
59766;SDS011;46248;58.364;25.582;2023-10-09T12:59:59;33.65;;;11.85;;
59766;SDS011;46248;58.364;25.582;2023-10-09T13:03:30;6.30;;;3.78;;
59766;SDS011;46248;58.364;25.582;2023-10-09T13:06:54;17.83;;;9.93;;
59766;SDS011;46248;58.364;25.582;2023-10-09T13:14:51;5.82;;;3.95;;
59766;SDS011;46248;58.364;25.582;2023-10-09T13:18:13;7.32;;;3.70;;
59766;SDS011;46248;58.364;25.582;2023-10-09T13:21:36;12.98;;;6.10;;
59766;SDS011;46248;58.364;25.582;2023-10-09T13:25:00;2.75;;;1.80;;
59766;SDS011;46248;58.364;25.582;2023-10-09T13:28:25;3.17;;;2.33;;
59766;SDS011;46248;58.364;25.582;2023-10-09T13:31:46;5.07;;;3.08;;
59766;SDS011;46248;58.364;25.582;2023-10-09T13:35:09;3.38;;;1.70;;
59766;SDS011;46248;58.364;25.582;2023-10-09T13:38:35;3.10;;;1.58;;
59766;SDS011;46248;58.364;25.582;2023-10-09T13:42:00;3.40;;;2.53;;
59766;SDS011;46248;58.364;25.582;2023-10-09T13:45:27;5.70;;;3.08;;
59766;SDS011;46248;58.364;25.582;2023-10-09T13:48:50;3.33;;;1.85;;
59766;SDS011;46248;58.364;25.582;2023-10-09T13:52:13;3.13;;;1.63;;
59766;SDS011;46248;58.364;25.582;2023-10-09T13:55:38;2.35;;;1.40;;
59766;SDS011;46248;58.364;25.582;2023-10-09T13:59:05;1.67;;;1.05;;
59766;SDS011;46248;58.364;25.582;2023-10-09T14:02:31;0.73;;;0.68;;
59766;SDS011;46248;58.364;25.582;2023-10-09T14:05:54;1.65;;;0.80;;
59766;SDS011;46248;58.364;25.582;2023-10-09T14:09:17;4.45;;;2.08;;
59766;SDS011;46248;58.364;25.582;2023-10-09T14:12:51;5.13;;;3.13;;
59766;SDS011;46248;58.364;25.582;2023-10-09T14:16:18;5.55;;;2.88;;
59766;SDS011;46248;58.364;25.582;2023-10-09T14:19:47;3.17;;;2.45;;
59766;SDS011;46248;58.364;25.582;2023-10-09T14:23:10;7.78;;;3.03;;
59766;SDS011;46248;58.364;25.582;2023-10-09T14:26:41;7.65;;;3.15;;
59766;SDS011;46248;58.364;25.582;2023-10-09T14:30:06;6.25;;;3.05;;
59766;SDS011;46248;58.364;25.582;2023-10-09T14:33:34;7.35;;;3.78;;
59766;SDS011;46248;58.364;25.582;2023-10-09T14:36:56;10.45;;;6.25;;
59766;SDS011;46248;58.364;25.582;2023-10-09T14:40:20;7.43;;;3.75;;
59766;SDS011;46248;58.364;25.582;2023-10-09T14:43:50;9.60;;;3.30;;
59766;SDS011;46248;58.364;25.582;2023-10-09T14:47:12;5.07;;;2.25;;
59766;SDS011;46248;58.364;25.582;2023-10-09T14:50:37;2.95;;;2.22;;
59766;SDS011;46248;58.364;25.582;2023-10-09T14:54:07;2.00;;;1.73;;
59766;SDS011;46248;58.364;25.582;2023-10-09T14:57:29;3.75;;;2.42;;
59766;SDS011;46248;58.364;25.582;2023-10-09T15:00:53;3.40;;;2.30;;
59766;SDS011;46248;58.364;25.582;2023-10-09T15:04:16;6.03;;;2.53;;
59766;SDS011;46248;58.364;25.582;2023-10-09T15:07:39;2.30;;;1.80;;
59766;SDS011;46248;58.364;25.582;2023-10-09T15:11:05;2.33;;;2.13;;
59766;SDS011;46248;58.364;25.582;2023-10-09T15:14:27;3.63;;;2.13;;
59766;SDS011;46248;58.364;25.582;2023-10-09T15:17:48;3.88;;;3.53;;
59766;SDS011;46248;58.364;25.582;2023-10-09T15:21:10;3.70;;;2.55;;
59766;SDS011;46248;58.364;25.582;2023-10-09T15:24:33;3.28;;;2.67;;
59766;SDS011;46248;58.364;25.582;2023-10-09T15:27:56;3.88;;;2.25;;
59766;SDS011;46248;58.364;25.582;2023-10-09T15:31:18;7.15;;;3.28;;
59766;SDS011;46248;58.364;25.582;2023-10-09T15:34:40;4.78;;;3.17;;
59766;SDS011;46248;58.364;25.582;2023-10-09T15:38:04;3.60;;;2.78;;
59766;SDS011;46248;58.364;25.582;2023-10-09T15:41:28;5.53;;;3.75;;
59766;SDS011;46248;58.364;25.582;2023-10-09T15:44:51;11.25;;;5.80;;
59766;SDS011;46248;58.364;25.582;2023-10-09T15:48:15;9.90;;;6.95;;
59766;SDS011;46248;58.364;25.582;2023-10-09T15:51:42;12.82;;;6.95;;
59766;SDS011;46248;58.364;25.582;2023-10-09T15:55:06;8.48;;;5.65;;
59766;SDS011;46248;58.364;25.582;2023-10-09T15:58:35;13.73;;;6.95;;
59766;SDS011;46248;58.364;25.582;2023-10-09T16:02:02;7.90;;;5.45;;
59766;SDS011;46248;58.364;25.582;2023-10-09T16:05:25;33.15;;;23.10;;
59766;SDS011;46248;58.364;25.582;2023-10-09T16:08:48;14.35;;;12.23;;
59766;SDS011;46248;58.364;25.582;2023-10-09T16:12:10;7.00;;;5.65;;
59766;SDS011;46248;58.364;25.582;2023-10-09T16:15:34;6.38;;;4.68;;
59766;SDS011;46248;58.364;25.582;2023-10-09T16:19:02;8.55;;;4.65;;
59766;SDS011;46248;58.364;25.582;2023-10-09T16:22:24;4.07;;;2.80;;
59766;SDS011;46248;58.364;25.582;2023-10-09T16:25:48;5.25;;;3.33;;
59766;SDS011;46248;58.364;25.582;2023-10-09T16:29:09;4.80;;;3.90;;
59766;SDS011;46248;58.364;25.582;2023-10-09T16:32:33;6.90;;;4.00;;
59766;SDS011;46248;58.364;25.582;2023-10-09T16:35:58;6.13;;;3.67;;
59766;SDS011;46248;58.364;25.582;2023-10-09T16:39:20;6.65;;;4.28;;
59766;SDS011;46248;58.364;25.582;2023-10-09T16:42:43;7.68;;;4.72;;
59766;SDS011;46248;58.364;25.582;2023-10-09T16:46:05;11.52;;;6.88;;
59766;SDS011;46248;58.364;25.582;2023-10-09T16:49:30;11.88;;;6.03;;
59766;SDS011;46248;58.364;25.582;2023-10-09T16:52:52;9.00;;;5.18;;
59766;SDS011;46248;58.364;25.582;2023-10-09T16:56:14;9.55;;;5.53;;
59766;SDS011;46248;58.364;25.582;2023-10-09T16:59:36;7.97;;;5.55;;
59766;SDS011;46248;58.364;25.582;2023-10-09T17:02:58;9.63;;;8.20;;
59766;SDS011;46248;58.364;25.582;2023-10-09T17:06:22;10.13;;;7.93;;
59766;SDS011;46248;58.364;25.582;2023-10-09T17:09:44;17.13;;;10.45;;
59766;SDS011;46248;58.364;25.582;2023-10-09T17:13:07;22.95;;;12.30;;
59766;SDS011;46248;58.364;25.582;2023-10-09T17:16:29;18.10;;;12.48;;
59766;SDS011;46248;58.364;25.582;2023-10-09T17:19:50;22.55;;;13.63;;
59766;SDS011;46248;58.364;25.582;2023-10-09T17:23:13;26.10;;;14.63;;
59766;SDS011;46248;58.364;25.582;2023-10-09T17:26:35;30.20;;;15.18;;
59766;SDS011;46248;58.364;25.582;2023-10-09T17:29:58;32.15;;;14.80;;
59766;SDS011;46248;58.364;25.582;2023-10-09T17:33:21;15.75;;;9.60;;
59766;SDS011;46248;58.364;25.582;2023-10-09T17:36:44;12.57;;;6.85;;
59766;SDS011;46248;58.364;25.582;2023-10-09T17:40:11;9.23;;;5.88;;
59766;SDS011;46248;58.364;25.582;2023-10-09T17:43:38;7.30;;;3.43;;
59766;SDS011;46248;58.364;25.582;2023-10-09T17:47:00;5.25;;;3.75;;
59766;SDS011;46248;58.364;25.582;2023-10-09T17:50:22;3.95;;;2.78;;
59766;SDS011;46248;58.364;25.582;2023-10-09T17:53:44;5.47;;;3.13;;
59766;SDS011;46248;58.364;25.582;2023-10-09T17:57:07;3.78;;;2.72;;
59766;SDS011;46248;58.364;25.582;2023-10-09T18:00:29;5.53;;;2.40;;
59766;SDS011;46248;58.364;25.582;2023-10-09T18:03:54;3.30;;;2.33;;
59766;SDS011;46248;58.364;25.582;2023-10-09T18:07:19;8.30;;;4.78;;
59766;SDS011;46248;58.364;25.582;2023-10-09T18:10:41;9.02;;;5.00;;
59766;SDS011;46248;58.364;25.582;2023-10-09T18:14:05;7.35;;;4.50;;
59766;SDS011;46248;58.364;25.582;2023-10-09T18:17:27;6.88;;;4.32;;
59766;SDS011;46248;58.364;25.582;2023-10-09T18:20:49;5.82;;;4.70;;
59766;SDS011;46248;58.364;25.582;2023-10-09T18:24:10;5.50;;;4.28;;
59766;SDS011;46248;58.364;25.582;2023-10-09T18:27:34;4.43;;;3.50;;
59766;SDS011;46248;58.364;25.582;2023-10-09T18:30:57;4.15;;;3.05;;
59766;SDS011;46248;58.364;25.582;2023-10-09T18:34:19;2.80;;;1.70;;
59766;SDS011;46248;58.364;25.582;2023-10-09T18:37:42;1.55;;;1.35;;
59766;SDS011;46248;58.364;25.582;2023-10-09T18:41:05;1.63;;;1.52;;
59766;SDS011;46248;58.364;25.582;2023-10-09T18:44:26;1.95;;;1.50;;
59766;SDS011;46248;58.364;25.582;2023-10-09T18:47:50;2.08;;;1.55;;
59766;SDS011;46248;58.364;25.582;2023-10-09T18:51:13;5.82;;;1.52;;
59766;SDS011;46248;58.364;25.582;2023-10-09T18:54:37;2.40;;;1.25;;
59766;SDS011;46248;58.364;25.582;2023-10-09T18:57:59;1.67;;;1.20;;
59766;SDS011;46248;58.364;25.582;2023-10-09T19:01:22;4.05;;;1.05;;
59766;SDS011;46248;58.364;25.582;2023-10-09T19:04:45;4.70;;;1.35;;
59766;SDS011;46248;58.364;25.582;2023-10-09T19:08:08;14.05;;;2.65;;
59766;SDS011;46248;58.364;25.582;2023-10-09T19:11:30;10.05;;;1.73;;
59766;SDS011;46248;58.364;25.582;2023-10-09T19:14:52;17.13;;;4.63;;
59766;SDS011;46248;58.364;25.582;2023-10-09T19:18:15;14.95;;;2.88;;
59766;SDS011;46248;58.364;25.582;2023-10-09T19:21:41;7.97;;;2.10;;
59766;SDS011;46248;58.364;25.582;2023-10-09T19:25:04;7.03;;;1.30;;
59766;SDS011;46248;58.364;25.582;2023-10-09T19:28:34;2.67;;;1.33;;
59766;SDS011;46248;58.364;25.582;2023-10-09T19:31:58;4.15;;;0.80;;
59766;SDS011;46248;58.364;25.582;2023-10-09T19:35:20;1.65;;;0.65;;
59766;SDS011;46248;58.364;25.582;2023-10-09T19:38:45;2.08;;;0.70;;
59766;SDS011;46248;58.364;25.582;2023-10-09T19:42:10;1.05;;;0.82;;
59766;SDS011;46248;58.364;25.582;2023-10-09T19:45:32;15.80;;;1.95;;
59766;SDS011;46248;58.364;25.582;2023-10-09T19:48:54;11.15;;;1.17;;
59766;SDS011;46248;58.364;25.582;2023-10-09T19:52:16;25.77;;;1.65;;
59766;SDS011;46248;58.364;25.582;2023-10-09T19:55:41;10.13;;;1.65;;
59766;SDS011;46248;58.364;25.582;2023-10-09T19:59:05;0.20;;;0.20;;
59766;SDS011;46248;58.364;25.582;2023-10-09T20:02:28;2.55;;;0.57;;
59766;SDS011;46248;58.364;25.582;2023-10-09T20:05:50;1.83;;;0.22;;
59766;SDS011;46248;58.364;25.582;2023-10-09T20:09:12;4.07;;;0.52;;
59766;SDS011;46248;58.364;25.582;2023-10-09T20:12:36;4.47;;;0.68;;
59766;SDS011;46248;58.364;25.582;2023-10-09T20:16:01;1.45;;;0.40;;
59766;SDS011;46248;58.364;25.582;2023-10-09T20:19:24;3.22;;;0.40;;
59766;SDS011;46248;58.364;25.582;2023-10-09T20:22:46;6.82;;;0.80;;
59766;SDS011;46248;58.364;25.582;2023-10-09T20:26:07;5.10;;;3.03;;
59766;SDS011;46248;58.364;25.582;2023-10-09T20:29:37;6.18;;;1.13;;
59766;SDS011;46248;58.364;25.582;2023-10-09T20:33:02;8.05;;;2.10;;
59766;SDS011;46248;58.364;25.582;2023-10-09T20:36:24;8.48;;;2.05;;
59766;SDS011;46248;58.364;25.582;2023-10-09T20:39:51;18.13;;;2.78;;
59766;SDS011;46248;58.364;25.582;2023-10-09T20:43:13;12.73;;;2.03;;
59766;SDS011;46248;58.364;25.582;2023-10-09T20:46:36;4.65;;;0.80;;
59766;SDS011;46248;58.364;25.582;2023-10-09T20:49:59;2.30;;;1.00;;
59766;SDS011;46248;58.364;25.582;2023-10-09T20:53:21;4.60;;;1.58;;
59766;SDS011;46248;58.364;25.582;2023-10-09T20:56:43;4.30;;;1.70;;
59766;SDS011;46248;58.364;25.582;2023-10-09T21:00:05;2.50;;;1.00;;
59766;SDS011;46248;58.364;25.582;2023-10-09T21:03:40;5.38;;;0.90;;
59766;SDS011;46248;58.364;25.582;2023-10-09T21:07:03;0.60;;;0.40;;
59766;SDS011;46248;58.364;25.582;2023-10-09T21:10:25;13.48;;;1.38;;
59766;SDS011;46248;58.364;25.582;2023-10-09T21:13:46;0.75;;;0.45;;
59766;SDS011;46248;58.364;25.582;2023-10-09T21:17:08;0.52;;;0.25;;
59766;SDS011;46248;58.364;25.582;2023-10-09T21:20:32;4.93;;;0.43;;
59766;SDS011;46248;58.364;25.582;2023-10-09T21:23:54;2.05;;;0.60;;
59766;SDS011;46248;58.364;25.582;2023-10-09T21:27:17;6.07;;;0.88;;
59766;SDS011;46248;58.364;25.582;2023-10-09T21:30:39;0.70;;;0.70;;
59766;SDS011;46248;58.364;25.582;2023-10-09T21:34:01;1.73;;;1.10;;
59766;SDS011;46248;58.364;25.582;2023-10-09T21:37:26;1.30;;;0.90;;
59766;SDS011;46248;58.364;25.582;2023-10-09T21:40:48;0.70;;;0.40;;
59766;SDS011;46248;58.364;25.582;2023-10-09T21:44:11;0.85;;;0.30;;
59766;SDS011;46248;58.364;25.582;2023-10-09T21:47:34;1.80;;;0.35;;
59766;SDS011;46248;58.364;25.582;2023-10-09T21:50:57;1.38;;;0.40;;
59766;SDS011;46248;58.364;25.582;2023-10-09T21:54:20;4.35;;;0.60;;
59766;SDS011;46248;58.364;25.582;2023-10-09T21:57:42;0.95;;;0.30;;
59766;SDS011;46248;58.364;25.582;2023-10-09T22:01:04;1.23;;;0.50;;
59766;SDS011;46248;58.364;25.582;2023-10-09T22:04:28;11.88;;;0.80;;
59766;SDS011;46248;58.364;25.582;2023-10-09T22:07:50;0.90;;;0.20;;
59766;SDS011;46248;58.364;25.582;2023-10-09T22:11:13;0.55;;;0.43;;
59766;SDS011;46248;58.364;25.582;2023-10-09T22:14:36;1.17;;;0.50;;
59766;SDS011;46248;58.364;25.582;2023-10-09T22:17:58;2.40;;;0.50;;
59766;SDS011;46248;58.364;25.582;2023-10-09T22:21:20;3.15;;;1.90;;
59766;SDS011;46248;58.364;25.582;2023-10-09T22:24:44;2.55;;;1.20;;
59766;SDS011;46248;58.364;25.582;2023-10-09T22:28:10;1.10;;;1.00;;
59766;SDS011;46248;58.364;25.582;2023-10-09T22:31:31;1.00;;;0.82;;
59766;SDS011;46248;58.364;25.582;2023-10-09T22:34:59;1.80;;;1.00;;
59766;SDS011;46248;58.364;25.582;2023-10-09T22:38:20;2.25;;;1.67;;
59766;SDS011;46248;58.364;25.582;2023-10-09T22:41:43;2.70;;;1.80;;
59766;SDS011;46248;58.364;25.582;2023-10-09T22:45:07;1.40;;;1.30;;
59766;SDS011;46248;58.364;25.582;2023-10-09T22:48:29;1.73;;;1.00;;
59766;SDS011;46248;58.364;25.582;2023-10-09T22:51:52;0.60;;;0.60;;
59766;SDS011;46248;58.364;25.582;2023-10-09T22:55:14;0.85;;;0.60;;
59766;SDS011;46248;58.364;25.582;2023-10-09T22:58:37;1.13;;;0.60;;